sensor_id;sensor_type;location;lat;lon;timestamp;P1;durP1;ratioP1;P2;durP2;ratioP2
20318;SDS011;10317;47.254;11.314;2022-08-21T00:00:25;3.72;;;3.40;;
20318;SDS011;10317;47.254;11.314;2022-08-21T00:02:54;4.25;;;3.85;;
20318;SDS011;10317;47.254;11.314;2022-08-21T00:05:26;3.97;;;3.58;;
20318;SDS011;10317;47.254;11.314;2022-08-21T00:07:53;3.55;;;3.20;;
20318;SDS011;10317;47.254;11.314;2022-08-21T00:10:19;3.58;;;3.33;;
20318;SDS011;10317;47.254;11.314;2022-08-21T00:12:46;4.53;;;3.17;;
20318;SDS011;10317;47.254;11.314;2022-08-21T00:15:16;3.63;;;3.33;;
20318;SDS011;10317;47.254;11.314;2022-08-21T00:17:45;4.00;;;3.60;;
20318;SDS011;10317;47.254;11.314;2022-08-21T00:20:11;3.20;;;3.00;;
20318;SDS011;10317;47.254;11.314;2022-08-21T00:22:39;3.83;;;3.30;;
20318;SDS011;10317;47.254;11.314;2022-08-21T00:25:05;5.13;;;3.70;;
20318;SDS011;10317;47.254;11.314;2022-08-21T00:27:32;3.80;;;3.50;;
20318;SDS011;10317;47.254;11.314;2022-08-21T00:29:58;4.18;;;3.78;;
20318;SDS011;10317;47.254;11.314;2022-08-21T00:32:25;3.60;;;3.30;;
20318;SDS011;10317;47.254;11.314;2022-08-21T00:34:52;4.25;;;3.67;;
20318;SDS011;10317;47.254;11.314;2022-08-21T00:37:19;3.63;;;3.38;;
20318;SDS011;10317;47.254;11.314;2022-08-21T00:39:45;5.75;;;3.65;;
20318;SDS011;10317;47.254;11.314;2022-08-21T00:42:12;4.25;;;3.28;;
20318;SDS011;10317;47.254;11.314;2022-08-21T00:44:45;6.50;;;4.00;;
20318;SDS011;10317;47.254;11.314;2022-08-21T00:47:12;4.18;;;3.75;;
20318;SDS011;10317;47.254;11.314;2022-08-21T00:49:39;4.30;;;3.90;;
20318;SDS011;10317;47.254;11.314;2022-08-21T00:52:06;4.45;;;3.70;;
20318;SDS011;10317;47.254;11.314;2022-08-21T00:54:36;3.95;;;3.67;;
20318;SDS011;10317;47.254;11.314;2022-08-21T00:57:05;5.10;;;3.35;;
20318;SDS011;10317;47.254;11.314;2022-08-21T00:59:36;5.00;;;3.92;;
20318;SDS011;10317;47.254;11.314;2022-08-21T01:02:03;4.45;;;4.03;;
20318;SDS011;10317;47.254;11.314;2022-08-21T01:04:33;3.10;;;2.90;;
20318;SDS011;10317;47.254;11.314;2022-08-21T01:06:59;3.80;;;3.50;;
20318;SDS011;10317;47.254;11.314;2022-08-21T01:09:25;3.90;;;3.60;;
20318;SDS011;10317;47.254;11.314;2022-08-21T01:11:51;3.97;;;3.63;;
20318;SDS011;10317;47.254;11.314;2022-08-21T01:14:17;3.67;;;3.42;;
20318;SDS011;10317;47.254;11.314;2022-08-21T01:16:46;3.75;;;3.45;;
20318;SDS011;10317;47.254;11.314;2022-08-21T01:19:16;3.78;;;3.47;;
20318;SDS011;10317;47.254;11.314;2022-08-21T01:21:43;3.20;;;2.92;;
20318;SDS011;10317;47.254;11.314;2022-08-21T01:24:09;4.85;;;3.95;;
20318;SDS011;10317;47.254;11.314;2022-08-21T01:26:35;4.60;;;3.50;;
20318;SDS011;10317;47.254;11.314;2022-08-21T01:29:05;3.58;;;3.35;;
20318;SDS011;10317;47.254;11.314;2022-08-21T01:31:36;3.50;;;3.20;;
20318;SDS011;10317;47.254;11.314;2022-08-21T01:34:02;4.72;;;3.50;;
20318;SDS011;10317;47.254;11.314;2022-08-21T01:36:28;4.00;;;3.70;;
20318;SDS011;10317;47.254;11.314;2022-08-21T01:38:54;3.78;;;3.45;;
20318;SDS011;10317;47.254;11.314;2022-08-21T01:41:20;4.40;;;3.70;;
20318;SDS011;10317;47.254;11.314;2022-08-21T01:43:46;8.10;;;3.90;;
20318;SDS011;10317;47.254;11.314;2022-08-21T01:46:12;3.28;;;3.08;;
20318;SDS011;10317;47.254;11.314;2022-08-21T01:48:38;4.72;;;3.53;;
20318;SDS011;10317;47.254;11.314;2022-08-21T01:51:05;3.97;;;3.67;;
20318;SDS011;10317;47.254;11.314;2022-08-21T01:53:32;3.72;;;3.42;;
20318;SDS011;10317;47.254;11.314;2022-08-21T01:56:00;4.75;;;3.80;;
20318;SDS011;10317;47.254;11.314;2022-08-21T01:58:27;4.63;;;3.30;;
20318;SDS011;10317;47.254;11.314;2022-08-21T02:00:53;3.88;;;3.58;;
20318;SDS011;10317;47.254;11.314;2022-08-21T02:03:18;3.95;;;3.30;;
20318;SDS011;10317;47.254;11.314;2022-08-21T02:05:44;3.47;;;3.17;;
20318;SDS011;10317;47.254;11.314;2022-08-21T02:08:10;4.78;;;2.95;;
20318;SDS011;10317;47.254;11.314;2022-08-21T02:10:36;3.33;;;2.95;;
20318;SDS011;10317;47.254;11.314;2022-08-21T02:13:02;3.97;;;3.60;;
20318;SDS011;10317;47.254;11.314;2022-08-21T02:15:28;3.90;;;3.30;;
20318;SDS011;10317;47.254;11.314;2022-08-21T02:17:57;4.25;;;3.67;;
20318;SDS011;10317;47.254;11.314;2022-08-21T02:22:50;4.05;;;3.70;;
20318;SDS011;10317;47.254;11.314;2022-08-21T02:25:17;4.22;;;3.83;;
20318;SDS011;10317;47.254;11.314;2022-08-21T02:27:44;3.67;;;3.40;;
20318;SDS011;10317;47.254;11.314;2022-08-21T02:30:16;2.92;;;2.72;;
20318;SDS011;10317;47.254;11.314;2022-08-21T02:32:45;2.88;;;2.72;;
20318;SDS011;10317;47.254;11.314;2022-08-21T02:35:11;3.60;;;3.30;;
20318;SDS011;10317;47.254;11.314;2022-08-21T02:37:44;3.40;;;3.10;;
20318;SDS011;10317;47.254;11.314;2022-08-21T02:40:12;3.60;;;3.00;;
20318;SDS011;10317;47.254;11.314;2022-08-21T02:42:39;3.17;;;2.97;;
20318;SDS011;10317;47.254;11.314;2022-08-21T02:45:05;3.20;;;2.90;;
20318;SDS011;10317;47.254;11.314;2022-08-21T02:47:31;3.08;;;2.83;;
20318;SDS011;10317;47.254;11.314;2022-08-21T02:49:57;4.80;;;2.70;;
20318;SDS011;10317;47.254;11.314;2022-08-21T02:52:22;3.03;;;2.88;;
20318;SDS011;10317;47.254;11.314;2022-08-21T02:54:49;4.13;;;2.92;;
20318;SDS011;10317;47.254;11.314;2022-08-21T02:57:14;3.08;;;2.88;;
20318;SDS011;10317;47.254;11.314;2022-08-21T02:59:40;2.17;;;2.08;;
20318;SDS011;10317;47.254;11.314;2022-08-21T03:02:06;6.00;;;3.03;;
20318;SDS011;10317;47.254;11.314;2022-08-21T03:04:32;4.53;;;2.95;;
20318;SDS011;10317;47.254;11.314;2022-08-21T03:06:58;3.28;;;2.20;;
20318;SDS011;10317;47.254;11.314;2022-08-21T03:09:23;2.45;;;2.35;;
20318;SDS011;10317;47.254;11.314;2022-08-21T03:11:50;2.15;;;1.83;;
20318;SDS011;10317;47.254;11.314;2022-08-21T03:14:16;2.92;;;2.72;;
20318;SDS011;10317;47.254;11.314;2022-08-21T03:16:43;3.10;;;2.90;;
20318;SDS011;10317;47.254;11.314;2022-08-21T03:19:09;4.25;;;3.95;;
20318;SDS011;10317;47.254;11.314;2022-08-21T03:21:35;2.75;;;2.33;;
20318;SDS011;10317;47.254;11.314;2022-08-21T03:24:01;2.78;;;2.15;;
20318;SDS011;10317;47.254;11.314;2022-08-21T03:26:27;2.50;;;2.30;;
20318;SDS011;10317;47.254;11.314;2022-08-21T03:28:53;3.08;;;2.05;;
20318;SDS011;10317;47.254;11.314;2022-08-21T03:31:19;4.53;;;2.47;;
20318;SDS011;10317;47.254;11.314;2022-08-21T03:33:46;2.85;;;2.20;;
20318;SDS011;10317;47.254;11.314;2022-08-21T03:36:12;2.50;;;2.30;;
20318;SDS011;10317;47.254;11.314;2022-08-21T03:38:38;2.63;;;2.42;;
20318;SDS011;10317;47.254;11.314;2022-08-21T03:41:04;3.22;;;2.70;;
20318;SDS011;10317;47.254;11.314;2022-08-21T03:43:31;2.70;;;2.50;;
20318;SDS011;10317;47.254;11.314;2022-08-21T03:45:58;2.65;;;2.25;;
20318;SDS011;10317;47.254;11.314;2022-08-21T03:48:28;2.30;;;2.20;;
20318;SDS011;10317;47.254;11.314;2022-08-21T03:50:54;2.40;;;2.25;;
20318;SDS011;10317;47.254;11.314;2022-08-21T03:53:21;2.80;;;2.25;;
20318;SDS011;10317;47.254;11.314;2022-08-21T03:55:48;2.65;;;1.85;;
20318;SDS011;10317;47.254;11.314;2022-08-21T03:58:16;2.17;;;2.05;;
20318;SDS011;10317;47.254;11.314;2022-08-21T04:00:45;3.25;;;2.33;;
20318;SDS011;10317;47.254;11.314;2022-08-21T04:03:11;2.83;;;2.05;;
20318;SDS011;10317;47.254;11.314;2022-08-21T04:05:37;2.50;;;2.33;;
20318;SDS011;10317;47.254;11.314;2022-08-21T04:08:04;2.33;;;2.00;;
20318;SDS011;10317;47.254;11.314;2022-08-21T04:10:32;1.92;;;1.77;;
20318;SDS011;10317;47.254;11.314;2022-08-21T04:13:00;1.60;;;1.60;;
20318;SDS011;10317;47.254;11.314;2022-08-21T04:15:26;2.65;;;2.20;;
20318;SDS011;10317;47.254;11.314;2022-08-21T04:17:52;1.80;;;1.80;;
20318;SDS011;10317;47.254;11.314;2022-08-21T04:20:19;2.00;;;1.92;;
20318;SDS011;10317;47.254;11.314;2022-08-21T04:22:46;2.50;;;2.25;;
20318;SDS011;10317;47.254;11.314;2022-08-21T04:25:13;1.85;;;1.85;;
20318;SDS011;10317;47.254;11.314;2022-08-21T04:27:39;2.03;;;1.92;;
20318;SDS011;10317;47.254;11.314;2022-08-21T04:30:06;3.92;;;1.80;;
20318;SDS011;10317;47.254;11.314;2022-08-21T04:32:34;2.50;;;2.40;;
20318;SDS011;10317;47.254;11.314;2022-08-21T04:35:06;2.17;;;1.98;;
20318;SDS011;10317;47.254;11.314;2022-08-21T04:37:34;1.90;;;1.80;;
20318;SDS011;10317;47.254;11.314;2022-08-21T04:40:00;3.78;;;3.50;;
20318;SDS011;10317;47.254;11.314;2022-08-21T04:42:27;4.70;;;1.80;;
20318;SDS011;10317;47.254;11.314;2022-08-21T04:44:53;2.50;;;2.13;;
20318;SDS011;10317;47.254;11.314;2022-08-21T04:47:20;1.92;;;1.83;;
20318;SDS011;10317;47.254;11.314;2022-08-21T04:49:46;1.90;;;1.80;;
20318;SDS011;10317;47.254;11.314;2022-08-21T04:52:13;1.98;;;1.88;;
20318;SDS011;10317;47.254;11.314;2022-08-21T04:54:42;3.88;;;1.90;;
20318;SDS011;10317;47.254;11.314;2022-08-21T04:57:10;2.08;;;2.03;;
20318;SDS011;10317;47.254;11.314;2022-08-21T04:59:37;1.95;;;1.85;;
20318;SDS011;10317;47.254;11.314;2022-08-21T05:02:05;1.67;;;1.67;;
20318;SDS011;10317;47.254;11.314;2022-08-21T05:04:34;1.77;;;1.67;;
20318;SDS011;10317;47.254;11.314;2022-08-21T05:07:05;2.00;;;1.80;;
20318;SDS011;10317;47.254;11.314;2022-08-21T05:09:35;2.22;;;2.05;;
20318;SDS011;10317;47.254;11.314;2022-08-21T05:12:03;1.83;;;1.73;;
20318;SDS011;10317;47.254;11.314;2022-08-21T05:14:29;2.00;;;1.80;;
20318;SDS011;10317;47.254;11.314;2022-08-21T05:16:55;2.08;;;1.98;;
20318;SDS011;10317;47.254;11.314;2022-08-21T05:19:20;2.20;;;2.10;;
20318;SDS011;10317;47.254;11.314;2022-08-21T05:21:46;1.83;;;1.73;;
20318;SDS011;10317;47.254;11.314;2022-08-21T05:24:13;1.80;;;1.70;;
20318;SDS011;10317;47.254;11.314;2022-08-21T05:26:39;2.00;;;1.90;;
20318;SDS011;10317;47.254;11.314;2022-08-21T05:29:05;1.92;;;1.60;;
20318;SDS011;10317;47.254;11.314;2022-08-21T05:31:31;1.67;;;1.55;;
20318;SDS011;10317;47.254;11.314;2022-08-21T05:33:57;1.83;;;1.73;;
20318;SDS011;10317;47.254;11.314;2022-08-21T05:36:23;3.92;;;2.05;;
20318;SDS011;10317;47.254;11.314;2022-08-21T05:38:49;2.50;;;2.40;;
20318;SDS011;10317;47.254;11.314;2022-08-21T05:41:14;2.53;;;1.90;;
20318;SDS011;10317;47.254;11.314;2022-08-21T05:43:40;1.80;;;1.70;;
20318;SDS011;10317;47.254;11.314;2022-08-21T05:46:06;2.30;;;2.17;;
20318;SDS011;10317;47.254;11.314;2022-08-21T05:48:33;1.60;;;1.60;;
20318;SDS011;10317;47.254;11.314;2022-08-21T05:51:10;1.55;;;1.55;;
20318;SDS011;10317;47.254;11.314;2022-08-21T05:53:39;1.73;;;1.70;;
20318;SDS011;10317;47.254;11.314;2022-08-21T05:56:07;2.85;;;1.85;;
20318;SDS011;10317;47.254;11.314;2022-08-21T05:58:33;1.60;;;1.60;;
20318;SDS011;10317;47.254;11.314;2022-08-21T06:01:00;3.50;;;1.80;;
20318;SDS011;10317;47.254;11.314;2022-08-21T06:03:31;1.80;;;1.63;;
20318;SDS011;10317;47.254;11.314;2022-08-21T06:05:59;1.88;;;1.77;;
20318;SDS011;10317;47.254;11.314;2022-08-21T06:08:25;5.65;;;1.85;;
20318;SDS011;10317;47.254;11.314;2022-08-21T06:10:52;2.10;;;2.00;;
20318;SDS011;10317;47.254;11.314;2022-08-21T06:13:18;2.17;;;2.05;;
20318;SDS011;10317;47.254;11.314;2022-08-21T06:15:45;1.95;;;1.45;;
20318;SDS011;10317;47.254;11.314;2022-08-21T06:18:11;2.83;;;1.90;;
20318;SDS011;10317;47.254;11.314;2022-08-21T06:20:37;2.28;;;1.83;;
20318;SDS011;10317;47.254;11.314;2022-08-21T06:23:04;1.83;;;1.73;;
20318;SDS011;10317;47.254;11.314;2022-08-21T06:25:30;2.40;;;1.92;;
20318;SDS011;10317;47.254;11.314;2022-08-21T06:30:28;2.55;;;2.38;;
20318;SDS011;10317;47.254;11.314;2022-08-21T06:32:53;3.30;;;3.03;;
20318;SDS011;10317;47.254;11.314;2022-08-21T06:35:19;2.90;;;2.47;;
20318;SDS011;10317;47.254;11.314;2022-08-21T06:37:45;2.40;;;2.30;;
20318;SDS011;10317;47.254;11.314;2022-08-21T06:40:10;2.35;;;2.08;;
20318;SDS011;10317;47.254;11.314;2022-08-21T06:42:37;1.95;;;1.83;;
20318;SDS011;10317;47.254;11.314;2022-08-21T06:45:03;2.13;;;2.00;;
20318;SDS011;10317;47.254;11.314;2022-08-21T06:47:29;2.65;;;1.90;;
20318;SDS011;10317;47.254;11.314;2022-08-21T06:49:55;2.00;;;1.90;;
20318;SDS011;10317;47.254;11.314;2022-08-21T06:52:20;2.40;;;2.28;;
20318;SDS011;10317;47.254;11.314;2022-08-21T06:54:46;2.50;;;2.30;;
20318;SDS011;10317;47.254;11.314;2022-08-21T06:57:12;2.10;;;1.85;;
20318;SDS011;10317;47.254;11.314;2022-08-21T06:59:38;2.35;;;2.25;;
20318;SDS011;10317;47.254;11.314;2022-08-21T07:02:04;2.15;;;2.00;;
20318;SDS011;10317;47.254;11.314;2022-08-21T07:04:29;2.55;;;1.95;;
20318;SDS011;10317;47.254;11.314;2022-08-21T07:06:55;1.70;;;1.60;;
20318;SDS011;10317;47.254;11.314;2022-08-21T07:09:21;1.98;;;1.92;;
20318;SDS011;10317;47.254;11.314;2022-08-21T07:11:47;2.92;;;1.77;;
20318;SDS011;10317;47.254;11.314;2022-08-21T07:14:17;1.85;;;1.60;;
20318;SDS011;10317;47.254;11.314;2022-08-21T07:16:42;2.08;;;1.98;;
20318;SDS011;10317;47.254;11.314;2022-08-21T07:19:08;1.80;;;1.80;;
20318;SDS011;10317;47.254;11.314;2022-08-21T07:21:34;1.88;;;1.73;;
20318;SDS011;10317;47.254;11.314;2022-08-21T07:23:59;1.98;;;1.90;;
20318;SDS011;10317;47.254;11.314;2022-08-21T07:26:25;1.88;;;1.77;;
20318;SDS011;10317;47.254;11.314;2022-08-21T07:28:51;2.13;;;1.92;;
20318;SDS011;10317;47.254;11.314;2022-08-21T07:31:18;2.20;;;2.03;;
20318;SDS011;10317;47.254;11.314;2022-08-21T07:33:46;2.15;;;2.05;;
20318;SDS011;10317;47.254;11.314;2022-08-21T07:36:12;2.08;;;1.98;;
20318;SDS011;10317;47.254;11.314;2022-08-21T07:38:38;2.38;;;1.98;;
20318;SDS011;10317;47.254;11.314;2022-08-21T07:41:07;1.92;;;1.83;;
20318;SDS011;10317;47.254;11.314;2022-08-21T07:43:39;1.92;;;1.83;;
20318;SDS011;10317;47.254;11.314;2022-08-21T07:46:05;2.00;;;1.88;;
20318;SDS011;10317;47.254;11.314;2022-08-21T07:48:30;4.43;;;1.88;;
20318;SDS011;10317;47.254;11.314;2022-08-21T07:50:56;2.70;;;2.50;;
20318;SDS011;10317;47.254;11.314;2022-08-21T07:53:23;1.70;;;1.70;;
20318;SDS011;10317;47.254;11.314;2022-08-21T07:55:49;2.13;;;1.48;;
20318;SDS011;10317;47.254;11.314;2022-08-21T07:58:15;2.00;;;1.90;;
20318;SDS011;10317;47.254;11.314;2022-08-21T08:00:40;1.80;;;1.70;;
20318;SDS011;10317;47.254;11.314;2022-08-21T08:03:06;2.70;;;1.60;;
20318;SDS011;10317;47.254;11.314;2022-08-21T08:05:33;1.63;;;1.52;;
20318;SDS011;10317;47.254;11.314;2022-08-21T08:08:02;1.55;;;1.52;;
20318;SDS011;10317;47.254;11.314;2022-08-21T08:10:28;1.50;;;1.40;;
20318;SDS011;10317;47.254;11.314;2022-08-21T08:12:53;1.30;;;1.20;;
20318;SDS011;10317;47.254;11.314;2022-08-21T08:15:21;1.85;;;1.40;;
20318;SDS011;10317;47.254;11.314;2022-08-21T08:17:49;1.58;;;1.20;;
20318;SDS011;10317;47.254;11.314;2022-08-21T08:20:15;1.20;;;1.20;;
20318;SDS011;10317;47.254;11.314;2022-08-21T08:22:43;1.48;;;1.38;;
20318;SDS011;10317;47.254;11.314;2022-08-21T08:25:09;1.30;;;1.30;;
20318;SDS011;10317;47.254;11.314;2022-08-21T08:27:37;1.10;;;1.10;;
20318;SDS011;10317;47.254;11.314;2022-08-21T08:30:04;1.13;;;1.13;;
20318;SDS011;10317;47.254;11.314;2022-08-21T08:32:32;1.58;;;1.30;;
20318;SDS011;10317;47.254;11.314;2022-08-21T08:34:58;1.45;;;1.35;;
20318;SDS011;10317;47.254;11.314;2022-08-21T08:37:24;2.17;;;1.20;;
20318;SDS011;10317;47.254;11.314;2022-08-21T08:39:50;1.08;;;1.08;;
20318;SDS011;10317;47.254;11.314;2022-08-21T08:42:18;1.20;;;1.20;;
20318;SDS011;10317;47.254;11.314;2022-08-21T08:44:58;1.88;;;1.25;;
20318;SDS011;10317;47.254;11.314;2022-08-21T08:47:30;1.45;;;1.35;;
20318;SDS011;10317;47.254;11.314;2022-08-21T08:50:17;1.60;;;1.50;;
20318;SDS011;10317;47.254;11.314;2022-08-21T08:52:45;1.77;;;1.67;;
20318;SDS011;10317;47.254;11.314;2022-08-21T08:55:19;1.67;;;1.50;;
20318;SDS011;10317;47.254;11.314;2022-08-21T08:57:58;1.38;;;1.30;;
20318;SDS011;10317;47.254;11.314;2022-08-21T09:00:24;1.77;;;1.75;;
20318;SDS011;10317;47.254;11.314;2022-08-21T09:02:54;1.13;;;1.08;;
20318;SDS011;10317;47.254;11.314;2022-08-21T09:05:23;1.95;;;1.10;;
20318;SDS011;10317;47.254;11.314;2022-08-21T09:16:13;1.40;;;1.30;;
20318;SDS011;10317;47.254;11.314;2022-08-21T09:29:44;1.05;;;1.05;;
20318;SDS011;10317;47.254;11.314;2022-08-21T09:32:23;1.63;;;1.52;;
20318;SDS011;10317;47.254;11.314;2022-08-21T09:35:05;1.17;;;1.17;;
20318;SDS011;10317;47.254;11.314;2022-08-21T09:37:32;1.30;;;1.20;;
20318;SDS011;10317;47.254;11.314;2022-08-21T09:40:00;1.20;;;1.10;;
20318;SDS011;10317;47.254;11.314;2022-08-21T09:42:28;1.88;;;1.30;;
20318;SDS011;10317;47.254;11.314;2022-08-21T09:45:12;1.05;;;1.05;;
20318;SDS011;10317;47.254;11.314;2022-08-21T09:47:40;1.05;;;1.00;;
20318;SDS011;10317;47.254;11.314;2022-08-21T09:50:15;1.20;;;1.20;;
20318;SDS011;10317;47.254;11.314;2022-08-21T09:52:49;1.60;;;1.58;;
20318;SDS011;10317;47.254;11.314;2022-08-21T09:55:20;1.33;;;1.33;;
20318;SDS011;10317;47.254;11.314;2022-08-21T09:58:07;1.33;;;1.23;;
20318;SDS011;10317;47.254;11.314;2022-08-21T10:00:34;1.35;;;1.35;;
20318;SDS011;10317;47.254;11.314;2022-08-21T10:03:11;1.17;;;1.17;;
20318;SDS011;10317;47.254;11.314;2022-08-21T10:08:25;1.35;;;1.25;;
20318;SDS011;10317;47.254;11.314;2022-08-21T10:10:57;3.17;;;1.10;;
20318;SDS011;10317;47.254;11.314;2022-08-21T10:13:47;1.38;;;1.20;;
20318;SDS011;10317;47.254;11.314;2022-08-21T10:22:05;1.23;;;1.10;;
20318;SDS011;10317;47.254;11.314;2022-08-21T10:25:02;1.25;;;1.25;;
20318;SDS011;10317;47.254;11.314;2022-08-21T10:35:57;1.42;;;1.33;;
20318;SDS011;10317;47.254;11.314;2022-08-21T10:38:33;1.00;;;1.00;;
20318;SDS011;10317;47.254;11.314;2022-08-21T10:44:57;1.80;;;1.35;;
20318;SDS011;10317;47.254;11.314;2022-08-21T10:54:51;0.93;;;0.93;;
20318;SDS011;10317;47.254;11.314;2022-08-21T10:57:30;0.95;;;0.95;;
20318;SDS011;10317;47.254;11.314;2022-08-21T11:00:13;1.23;;;1.23;;
20318;SDS011;10317;47.254;11.314;2022-08-21T11:02:49;1.00;;;1.00;;
20318;SDS011;10317;47.254;11.314;2022-08-21T11:05:27;1.35;;;1.10;;
20318;SDS011;10317;47.254;11.314;2022-08-21T11:08:15;1.00;;;1.00;;
20318;SDS011;10317;47.254;11.314;2022-08-21T11:13:44;1.20;;;1.10;;
20318;SDS011;10317;47.254;11.314;2022-08-21T11:19:12;0.85;;;0.85;;
20318;SDS011;10317;47.254;11.314;2022-08-21T11:21:55;0.80;;;0.80;;
20318;SDS011;10317;47.254;11.314;2022-08-21T11:24:58;0.77;;;0.77;;
20318;SDS011;10317;47.254;11.314;2022-08-21T11:30:09;0.80;;;0.80;;
20318;SDS011;10317;47.254;11.314;2022-08-21T11:43:43;1.02;;;0.75;;
20318;SDS011;10317;47.254;11.314;2022-08-21T11:46:26;0.85;;;0.85;;
20318;SDS011;10317;47.254;11.314;2022-08-21T11:51:48;0.82;;;0.82;;
20318;SDS011;10317;47.254;11.314;2022-08-21T11:59:47;0.70;;;0.70;;
20318;SDS011;10317;47.254;11.314;2022-08-21T12:02:19;4.93;;;0.70;;
20318;SDS011;10317;47.254;11.314;2022-08-21T12:04:53;0.70;;;0.70;;
20318;SDS011;10317;47.254;11.314;2022-08-21T12:07:37;0.70;;;0.70;;
20318;SDS011;10317;47.254;11.314;2022-08-21T12:10:09;0.73;;;0.73;;
20318;SDS011;10317;47.254;11.314;2022-08-21T12:12:39;0.68;;;0.68;;
20318;SDS011;10317;47.254;11.314;2022-08-21T12:15:16;0.70;;;0.70;;
20318;SDS011;10317;47.254;11.314;2022-08-21T12:18:02;0.80;;;0.80;;
20318;SDS011;10317;47.254;11.314;2022-08-21T12:20:44;0.70;;;0.70;;
20318;SDS011;10317;47.254;11.314;2022-08-21T12:23:26;0.90;;;0.90;;
20318;SDS011;10317;47.254;11.314;2022-08-21T12:29:02;0.80;;;0.80;;
20318;SDS011;10317;47.254;11.314;2022-08-21T12:31:55;0.90;;;0.90;;
20318;SDS011;10317;47.254;11.314;2022-08-21T12:34:22;0.60;;;0.60;;
20318;SDS011;10317;47.254;11.314;2022-08-21T12:37:00;0.70;;;0.70;;
20318;SDS011;10317;47.254;11.314;2022-08-21T12:39:31;14.45;;;10.73;;
20318;SDS011;10317;47.254;11.314;2022-08-21T12:42:06;8.85;;;7.22;;
20318;SDS011;10317;47.254;11.314;2022-08-21T12:44:52;8.98;;;6.82;;
20318;SDS011;10317;47.254;11.314;2022-08-21T12:47:29;5.55;;;5.05;;
20318;SDS011;10317;47.254;11.314;2022-08-21T12:50:03;10.75;;;8.20;;
20318;SDS011;10317;47.254;11.314;2022-08-21T12:52:34;10.15;;;6.22;;
20318;SDS011;10317;47.254;11.314;2022-08-21T12:55:05;6.63;;;3.60;;
20318;SDS011;10317;47.254;11.314;2022-08-21T12:57:32;1.10;;;0.98;;
20318;SDS011;10317;47.254;11.314;2022-08-21T13:00:03;1.08;;;1.08;;
20318;SDS011;10317;47.254;11.314;2022-08-21T13:02:35;0.80;;;0.80;;
20318;SDS011;10317;47.254;11.314;2022-08-21T13:05:05;0.65;;;0.65;;
20318;SDS011;10317;47.254;11.314;2022-08-21T13:07:34;0.60;;;0.60;;
20318;SDS011;10317;47.254;11.314;2022-08-21T13:10:06;0.73;;;0.70;;
20318;SDS011;10317;47.254;11.314;2022-08-21T13:12:41;1.08;;;0.90;;
20318;SDS011;10317;47.254;11.314;2022-08-21T13:15:08;0.80;;;0.80;;
20318;SDS011;10317;47.254;11.314;2022-08-21T13:17:35;0.98;;;0.98;;
20318;SDS011;10317;47.254;11.314;2022-08-21T13:20:05;0.57;;;0.55;;
20318;SDS011;10317;47.254;11.314;2022-08-21T13:22:43;0.60;;;0.60;;
20318;SDS011;10317;47.254;11.314;2022-08-21T13:25:10;0.60;;;0.60;;
20318;SDS011;10317;47.254;11.314;2022-08-21T13:27:38;0.63;;;0.63;;
20318;SDS011;10317;47.254;11.314;2022-08-21T13:30:12;0.70;;;0.70;;
20318;SDS011;10317;47.254;11.314;2022-08-21T13:32:43;0.70;;;0.70;;
20318;SDS011;10317;47.254;11.314;2022-08-21T13:37:43;1.00;;;0.68;;
20318;SDS011;10317;47.254;11.314;2022-08-21T13:40:12;0.80;;;0.80;;
20318;SDS011;10317;47.254;11.314;2022-08-21T13:42:41;1.90;;;0.73;;
20318;SDS011;10317;47.254;11.314;2022-08-21T13:45:13;0.70;;;0.70;;
20318;SDS011;10317;47.254;11.314;2022-08-21T13:47:47;0.70;;;0.70;;
20318;SDS011;10317;47.254;11.314;2022-08-21T13:50:14;0.77;;;0.77;;
20318;SDS011;10317;47.254;11.314;2022-08-21T13:53:19;0.60;;;0.60;;
20318;SDS011;10317;47.254;11.314;2022-08-21T13:55:49;0.80;;;0.80;;
20318;SDS011;10317;47.254;11.314;2022-08-21T13:58:23;0.75;;;0.70;;
20318;SDS011;10317;47.254;11.314;2022-08-21T14:00:57;0.80;;;0.80;;
20318;SDS011;10317;47.254;11.314;2022-08-21T14:06:18;0.63;;;0.63;;
20318;SDS011;10317;47.254;11.314;2022-08-21T14:08:50;0.60;;;0.60;;
20318;SDS011;10317;47.254;11.314;2022-08-21T14:11:19;1.13;;;1.02;;
20318;SDS011;10317;47.254;11.314;2022-08-21T14:13:48;1.95;;;0.70;;
20318;SDS011;10317;47.254;11.314;2022-08-21T14:16:25;0.75;;;0.75;;
20318;SDS011;10317;47.254;11.314;2022-08-21T14:19:10;0.80;;;0.80;;
20318;SDS011;10317;47.254;11.314;2022-08-21T14:21:56;1.40;;;1.40;;
20318;SDS011;10317;47.254;11.314;2022-08-21T14:26:55;0.70;;;0.70;;
20318;SDS011;10317;47.254;11.314;2022-08-21T14:29:22;0.70;;;0.70;;
20318;SDS011;10317;47.254;11.314;2022-08-21T14:31:55;0.90;;;0.90;;
20318;SDS011;10317;47.254;11.314;2022-08-21T14:34:26;0.77;;;0.77;;
20318;SDS011;10317;47.254;11.314;2022-08-21T14:36:54;0.88;;;0.73;;
20318;SDS011;10317;47.254;11.314;2022-08-21T14:39:21;1.60;;;0.93;;
20318;SDS011;10317;47.254;11.314;2022-08-21T14:41:47;1.77;;;0.90;;
20318;SDS011;10317;47.254;11.314;2022-08-21T14:44:16;1.00;;;1.00;;
20318;SDS011;10317;47.254;11.314;2022-08-21T14:46:43;0.80;;;0.80;;
20318;SDS011;10317;47.254;11.314;2022-08-21T14:49:10;0.80;;;0.80;;
20318;SDS011;10317;47.254;11.314;2022-08-21T14:51:36;0.70;;;0.70;;
20318;SDS011;10317;47.254;11.314;2022-08-21T14:54:03;0.82;;;0.82;;
20318;SDS011;10317;47.254;11.314;2022-08-21T14:56:30;0.73;;;0.73;;
20318;SDS011;10317;47.254;11.314;2022-08-21T14:58:56;1.00;;;0.70;;
20318;SDS011;10317;47.254;11.314;2022-08-21T15:01:35;0.85;;;0.85;;
20318;SDS011;10317;47.254;11.314;2022-08-21T15:04:02;0.60;;;0.60;;
20318;SDS011;10317;47.254;11.314;2022-08-21T15:06:28;1.00;;;1.00;;
20318;SDS011;10317;47.254;11.314;2022-08-21T15:08:54;0.75;;;0.75;;
20318;SDS011;10317;47.254;11.314;2022-08-21T15:11:21;0.80;;;0.80;;
20318;SDS011;10317;47.254;11.314;2022-08-21T15:13:55;0.73;;;0.73;;
20318;SDS011;10317;47.254;11.314;2022-08-21T15:16:23;0.65;;;0.65;;
20318;SDS011;10317;47.254;11.314;2022-08-21T15:18:49;1.00;;;1.00;;
20318;SDS011;10317;47.254;11.314;2022-08-21T15:21:14;0.60;;;0.60;;
20318;SDS011;10317;47.254;11.314;2022-08-21T15:23:40;0.90;;;0.90;;
20318;SDS011;10317;47.254;11.314;2022-08-21T15:26:06;1.20;;;0.75;;
20318;SDS011;10317;47.254;11.314;2022-08-21T15:28:33;1.48;;;0.70;;
20318;SDS011;10317;47.254;11.314;2022-08-21T15:31:00;0.80;;;0.80;;
20318;SDS011;10317;47.254;11.314;2022-08-21T15:33:26;0.73;;;0.73;;
20318;SDS011;10317;47.254;11.314;2022-08-21T15:35:52;1.25;;;0.95;;
20318;SDS011;10317;47.254;11.314;2022-08-21T15:38:18;0.63;;;0.63;;
20318;SDS011;10317;47.254;11.314;2022-08-21T15:40:43;0.90;;;0.80;;
20318;SDS011;10317;47.254;11.314;2022-08-21T15:43:14;5.38;;;0.98;;
20318;SDS011;10317;47.254;11.314;2022-08-21T15:45:50;1.42;;;1.33;;
20318;SDS011;10317;47.254;11.314;2022-08-21T15:52:19;1.38;;;0.80;;
20318;SDS011;10317;47.254;11.314;2022-08-21T15:54:46;0.90;;;0.90;;
20318;SDS011;10317;47.254;11.314;2022-08-21T15:57:13;0.90;;;0.90;;
20318;SDS011;10317;47.254;11.314;2022-08-21T15:59:42;0.93;;;0.93;;
20318;SDS011;10317;47.254;11.314;2022-08-21T16:02:12;1.40;;;0.68;;
20318;SDS011;10317;47.254;11.314;2022-08-21T16:04:41;1.00;;;1.00;;
20318;SDS011;10317;47.254;11.314;2022-08-21T16:07:06;0.90;;;0.90;;
20318;SDS011;10317;47.254;11.314;2022-08-21T16:09:32;0.95;;;0.88;;
20318;SDS011;10317;47.254;11.314;2022-08-21T16:11:58;0.88;;;0.80;;
20318;SDS011;10317;47.254;11.314;2022-08-21T16:14:25;2.72;;;1.10;;
20318;SDS011;10317;47.254;11.314;2022-08-21T16:16:53;0.90;;;0.90;;
20318;SDS011;10317;47.254;11.314;2022-08-21T16:19:19;0.80;;;0.80;;